createdAt,value
2022-08-20T00:00:14.400Z,0.00
2022-08-20T00:01:14.386Z,0.00
2022-08-20T00:02:14.463Z,0.00
2022-08-20T00:03:14.358Z,0.00
2022-08-20T00:04:14.349Z,0.00
2022-08-20T00:05:14.335Z,0.00
2022-08-20T00:06:14.327Z,0.00
2022-08-20T00:07:14.311Z,0.00
2022-08-20T00:08:14.296Z,0.00
2022-08-20T00:09:14.283Z,0.00
2022-08-20T00:10:14.271Z,0.00
2022-08-20T00:11:14.256Z,0.00
2022-08-20T00:12:14.243Z,0.00
2022-08-20T00:13:14.231Z,0.00
2022-08-20T00:14:14.216Z,0.00
2022-08-20T00:15:14.211Z,0.00
2022-08-20T00:16:14.189Z,0.00
2022-08-20T00:17:14.175Z,0.00
2022-08-20T00:18:14.166Z,0.00
2022-08-20T00:19:14.148Z,0.00
2022-08-20T00:20:14.140Z,0.00
2022-08-20T00:21:16.683Z,0.00
2022-08-20T00:22:14.109Z,0.00
2022-08-20T00:23:14.097Z,0.00
2022-08-20T00:24:14.088Z,0.00
2022-08-20T00:25:14.069Z,0.00
2022-08-20T00:26:14.058Z,0.00
2022-08-20T00:27:14.045Z,0.00
2022-08-20T00:28:14.032Z,0.00
2022-08-20T00:29:14.017Z,0.00
2022-08-20T00:30:14.012Z,0.00
2022-08-20T00:31:14.002Z,0.00
2022-08-20T00:32:13.977Z,0.00
2022-08-20T00:33:13.965Z,0.00
2022-08-20T00:34:13.951Z,0.00
2022-08-20T00:35:13.942Z,0.00
2022-08-20T00:36:13.927Z,0.00
2022-08-20T00:37:13.911Z,0.00
2022-08-20T00:38:13.904Z,0.00
2022-08-20T00:39:13.886Z,0.00
2022-08-20T00:40:22.431Z,0.00
2022-08-20T00:41:13.858Z,0.00
2022-08-20T00:42:13.847Z,0.00
2022-08-20T00:43:13.831Z,0.00
2022-08-20T00:44:13.821Z,0.00
2022-08-20T00:45:13.806Z,0.00
2022-08-20T00:46:13.792Z,0.00
2022-08-20T00:47:13.779Z,0.00
2022-08-20T00:48:13.766Z,0.00
2022-08-20T00:49:13.754Z,0.00
2022-08-20T00:50:13.740Z,0.00
2022-08-20T00:51:13.735Z,0.00
2022-08-20T00:52:13.710Z,0.00
2022-08-20T00:53:13.702Z,0.00
2022-08-20T00:54:13.685Z,0.00
2022-08-20T00:55:13.676Z,0.00
2022-08-20T00:56:13.658Z,0.00
2022-08-20T00:57:13.648Z,0.00
2022-08-20T00:58:13.631Z,0.00
2022-08-20T00:59:13.624Z,0.00
2022-08-20T01:00:13.607Z,0.00
2022-08-20T01:01:13.595Z,0.00
2022-08-20T01:02:13.626Z,0.00
2022-08-20T01:03:13.566Z,0.00
2022-08-20T01:04:13.550Z,0.00
2022-08-20T01:05:13.542Z,0.00
2022-08-20T01:06:13.526Z,0.00
2022-08-20T01:07:13.515Z,0.00
2022-08-20T01:08:13.505Z,0.00
2022-08-20T01:09:13.486Z,0.00
2022-08-20T01:10:13.471Z,0.00
2022-08-20T01:11:13.460Z,0.00
2022-08-20T01:12:13.447Z,0.00
2022-08-20T01:13:13.441Z,0.00
2022-08-20T01:14:13.421Z,0.00
2022-08-20T01:15:13.404Z,0.00
2022-08-20T01:16:13.393Z,0.00
2022-08-20T01:17:13.383Z,0.00
2022-08-20T01:18:13.365Z,0.00
2022-08-20T01:19:29.961Z,0.00
2022-08-20T01:20:13.340Z,0.00
2022-08-20T01:21:13.329Z,0.00
2022-08-20T01:22:13.309Z,0.00
2022-08-20T01:23:13.302Z,0.00
2022-08-20T01:24:13.287Z,0.00
2022-08-20T01:25:13.276Z,0.00
2022-08-20T01:26:13.261Z,0.00
2022-08-20T01:27:13.245Z,0.00
2022-08-20T01:28:13.232Z,0.00
2022-08-20T01:29:13.221Z,0.00
2022-08-20T01:30:13.204Z,0.00
2022-08-20T01:31:13.197Z,0.00
2022-08-20T01:32:13.183Z,0.00
2022-08-20T01:33:13.167Z,0.00
2022-08-20T01:34:13.152Z,0.00
2022-08-20T01:35:13.141Z,0.00
2022-08-20T01:36:13.126Z,0.00
2022-08-20T01:37:13.119Z,0.00
2022-08-20T01:38:13.100Z,0.00
2022-08-20T01:39:13.103Z,0.00
2022-08-20T01:40:13.122Z,0.00
2022-08-20T01:41:13.059Z,0.00
2022-08-20T01:42:13.046Z,0.00
2022-08-20T01:43:13.104Z,0.00
2022-08-20T01:44:16.707Z,0.00
2022-08-20T01:45:13.007Z,0.00
2022-08-20T01:46:12.991Z,0.00
2022-08-20T01:47:12.983Z,0.00
2022-08-20T01:48:12.965Z,0.00
2022-08-20T01:49:13.574Z,0.00
2022-08-20T01:50:12.937Z,0.00
2022-08-20T01:51:12.928Z,0.00
2022-08-20T01:52:12.919Z,0.00
2022-08-20T01:53:12.900Z,0.00
2022-08-20T01:54:12.885Z,0.00
2022-08-20T01:55:12.880Z,0.00
2022-08-20T01:56:12.859Z,0.00
2022-08-20T01:57:12.853Z,0.00
2022-08-20T01:58:12.839Z,0.00
2022-08-20T01:59:12.821Z,0.00
2022-08-20T02:00:19.708Z,0.00
2022-08-20T02:01:12.859Z,0.00
2022-08-20T02:02:12.783Z,0.00
2022-08-20T02:03:12.767Z,0.00
2022-08-20T02:04:15.334Z,0.00
2022-08-20T02:05:12.740Z,0.00
2022-08-20T02:06:12.728Z,0.00
2022-08-20T02:07:12.713Z,0.00
2022-08-20T02:08:12.700Z,0.00
2022-08-20T02:09:16.054Z,0.00
2022-08-20T02:10:12.671Z,0.00
2022-08-20T02:11:12.662Z,0.00
2022-08-20T02:12:12.645Z,0.00
2022-08-20T02:13:12.633Z,0.00
2022-08-20T02:14:12.619Z,0.00
2022-08-20T02:15:12.611Z,0.00
2022-08-20T02:16:12.649Z,0.00
2022-08-20T02:17:12.583Z,0.00
2022-08-20T02:18:12.570Z,0.00
2022-08-20T02:19:12.565Z,0.00
2022-08-20T02:20:12.545Z,0.00
2022-08-20T02:21:12.526Z,0.00
2022-08-20T02:22:12.512Z,0.00
2022-08-20T02:23:12.500Z,0.00
2022-08-20T02:24:12.487Z,0.00
2022-08-20T02:25:12.473Z,0.00
2022-08-20T02:26:12.457Z,0.00
2022-08-20T02:27:12.445Z,0.00
2022-08-20T02:28:12.431Z,0.00
2022-08-20T02:29:12.422Z,0.00
2022-08-20T02:30:19.950Z,0.00
2022-08-20T02:31:12.391Z,0.00
2022-08-20T02:32:24.435Z,0.00
2022-08-20T02:33:12.365Z,0.00
2022-08-20T02:34:21.860Z,0.00
2022-08-20T02:35:12.340Z,0.00
2022-08-20T02:36:12.330Z,0.00
2022-08-20T02:37:12.315Z,0.00
2022-08-20T02:38:12.298Z,0.00
2022-08-20T02:39:12.286Z,0.00
2022-08-20T02:40:12.338Z,0.00
2022-08-20T02:41:12.259Z,0.00
2022-08-20T02:42:12.245Z,0.00
2022-08-20T02:43:12.234Z,0.00
2022-08-20T02:44:12.221Z,0.00
2022-08-20T02:45:19.009Z,0.00
2022-08-20T02:46:12.190Z,0.00
2022-08-20T02:47:12.180Z,0.00
2022-08-20T02:48:12.168Z,0.00
2022-08-20T02:49:12.166Z,0.00
2022-08-20T02:50:12.137Z,0.00
2022-08-20T02:51:12.125Z,0.00
2022-08-20T02:52:12.120Z,0.00
2022-08-20T02:53:12.108Z,0.00
2022-08-20T02:54:12.092Z,0.00
2022-08-20T02:55:12.074Z,0.00
2022-08-20T02:56:12.063Z,0.00
2022-08-20T02:57:12.054Z,0.00
2022-08-20T02:58:12.033Z,0.00
2022-08-20T02:59:12.536Z,0.00
2022-08-20T03:00:12.009Z,0.00
2022-08-20T03:01:12.042Z,0.00
2022-08-20T03:02:11.982Z,0.00
2022-08-20T03:03:11.968Z,0.00
2022-08-20T03:04:11.954Z,0.00
2022-08-20T03:05:11.942Z,0.00
2022-08-20T03:06:11.932Z,0.00
2022-08-20T03:07:11.915Z,0.00
2022-08-20T03:08:11.903Z,0.00
2022-08-20T03:09:11.890Z,0.00
2022-08-20T03:10:11.886Z,0.00
2022-08-20T03:11:11.866Z,0.00
2022-08-20T03:12:11.852Z,0.00
2022-08-20T03:13:11.838Z,0.00
2022-08-20T03:14:11.824Z,0.00
2022-08-20T03:15:17.574Z,0.00
2022-08-20T03:16:11.850Z,0.00
2022-08-20T03:17:11.791Z,0.00
2022-08-20T03:18:11.772Z,0.00
2022-08-20T03:19:11.761Z,0.00
2022-08-20T03:20:11.744Z,0.00
2022-08-20T03:21:11.740Z,0.00
2022-08-20T03:22:11.721Z,0.00
2022-08-20T03:23:11.709Z,0.00
2022-08-20T03:24:11.700Z,0.00
2022-08-20T03:25:11.683Z,0.00
2022-08-20T03:26:11.666Z,0.00
2022-08-20T03:27:11.664Z,0.00
2022-08-20T03:28:11.649Z,0.00
2022-08-20T03:29:11.635Z,0.00
2022-08-20T03:30:11.616Z,0.00
2022-08-20T03:31:14.694Z,0.00
2022-08-20T03:32:11.598Z,0.00
2022-08-20T03:33:11.582Z,0.00
2022-08-20T03:34:11.564Z,0.00
2022-08-20T03:35:11.555Z,0.00
2022-08-20T03:36:11.543Z,0.00
2022-08-20T03:37:11.529Z,0.00
2022-08-20T03:38:11.517Z,0.00
2022-08-20T03:39:11.534Z,0.00
2022-08-20T03:40:11.603Z,0.00
2022-08-20T03:41:11.494Z,0.00
2022-08-20T03:42:11.466Z,0.00
2022-08-20T03:43:11.456Z,0.00
2022-08-20T03:44:11.440Z,0.00
2022-08-20T03:45:11.428Z,0.00
2022-08-20T03:46:21.979Z,0.00
2022-08-20T03:47:11.404Z,0.00
2022-08-20T03:48:11.388Z,0.00
2022-08-20T03:49:11.379Z,0.00
2022-08-20T03:50:11.366Z,0.00
2022-08-20T03:51:11.350Z,0.00
2022-08-20T03:52:11.336Z,0.00
2022-08-20T03:53:13.081Z,0.00
2022-08-20T03:54:11.312Z,0.00
2022-08-20T03:55:11.301Z,0.00
2022-08-20T03:56:11.286Z,0.00
2022-08-20T03:57:12.854Z,0.00
2022-08-20T03:58:11.263Z,0.00
2022-08-20T03:59:11.253Z,0.00
2022-08-20T04:00:11.238Z,0.00
2022-08-20T04:01:36.867Z,0.00
2022-08-20T04:02:11.275Z,0.00
2022-08-20T04:03:11.199Z,0.00
2022-08-20T04:04:12.231Z,0.00
2022-08-20T04:05:11.177Z,0.00
2022-08-20T04:06:11.161Z,4.00
2022-08-20T04:07:11.153Z,4.00
2022-08-20T04:08:11.135Z,0.00
2022-08-20T04:09:12.171Z,4.00
2022-08-20T04:10:11.112Z,4.00
2022-08-20T04:11:11.101Z,4.00
2022-08-20T04:12:11.087Z,4.00
2022-08-20T04:13:11.075Z,4.00
2022-08-20T04:14:11.332Z,8.00
2022-08-20T04:15:11.049Z,8.00
2022-08-20T04:16:13.469Z,8.00
2022-08-20T04:17:11.029Z,8.00
2022-08-20T04:18:11.014Z,8.00
2022-08-20T04:19:11.002Z,12.00
2022-08-20T04:20:10.989Z,12.00
2022-08-20T04:21:10.975Z,16.00
2022-08-20T04:22:10.960Z,12.00
2022-08-20T04:23:10.949Z,16.00
2022-08-20T04:24:27.508Z,20.00
2022-08-20T04:25:10.925Z,16.00
2022-08-20T04:26:10.918Z,16.00
2022-08-20T04:27:10.903Z,16.00
2022-08-20T04:28:10.888Z,16.00
2022-08-20T04:29:10.877Z,20.00
2022-08-20T04:30:10.861Z,16.00
2022-08-20T04:31:10.850Z,20.00
2022-08-20T04:32:10.836Z,20.00
2022-08-20T04:33:10.825Z,20.00
2022-08-20T04:34:10.822Z,28.00
2022-08-20T04:35:10.799Z,32.00
2022-08-20T04:36:10.787Z,36.00
2022-08-20T04:37:16.953Z,40.00
2022-08-20T04:38:10.766Z,48.00
2022-08-20T04:39:10.751Z,52.00
2022-08-20T04:40:10.834Z,56.00
2022-08-20T04:41:10.745Z,60.00
2022-08-20T04:42:10.711Z,68.00
2022-08-20T04:43:10.700Z,76.00
2022-08-20T04:44:10.686Z,80.00
2022-08-20T04:45:10.674Z,84.00
2022-08-20T04:46:10.661Z,88.00
2022-08-20T04:47:10.651Z,84.00
2022-08-20T04:48:14.791Z,80.00
2022-08-20T04:49:10.627Z,72.00
2022-08-20T04:50:10.628Z,64.00
2022-08-20T04:51:10.600Z,60.00
2022-08-20T04:52:10.590Z,52.00
2022-08-20T04:53:10.578Z,52.00
2022-08-20T04:54:10.566Z,44.00
2022-08-20T04:55:10.565Z,44.00
2022-08-20T04:56:10.537Z,44.00
2022-08-20T04:57:10.534Z,48.00
2022-08-20T04:58:10.513Z,52.00
2022-08-20T04:59:10.504Z,60.00
2022-08-20T05:00:10.490Z,68.00
2022-08-20T05:01:10.493Z,80.00
2022-08-20T05:02:10.465Z,92.00
2022-08-20T05:03:10.452Z,104.00
2022-08-20T05:04:10.441Z,120.00
2022-08-20T05:05:10.429Z,128.00
2022-08-20T05:06:10.420Z,132.00
2022-08-20T05:07:10.404Z,132.00
2022-08-20T05:08:16.695Z,128.00
2022-08-20T05:09:10.380Z,124.00
2022-08-20T05:10:10.369Z,124.00
2022-08-20T05:11:33.692Z,124.00
2022-08-20T05:12:10.340Z,128.00
2022-08-20T05:13:10.327Z,128.00
2022-08-20T05:14:10.319Z,120.00
2022-08-20T05:15:10.303Z,116.00
2022-08-20T05:16:10.295Z,108.00
2022-08-20T05:17:10.281Z,104.00
2022-08-20T05:18:10.269Z,96.00
2022-08-20T05:19:10.253Z,92.00
2022-08-20T05:20:10.242Z,92.00
2022-08-20T05:21:10.232Z,88.00
2022-08-20T05:22:10.220Z,80.00
2022-08-20T05:23:10.208Z,80.00
2022-08-20T05:24:10.259Z,80.00
2022-08-20T05:25:10.182Z,88.00
2022-08-20T05:26:10.167Z,96.00
2022-08-20T05:27:10.154Z,100.00
2022-08-20T05:28:10.144Z,108.00
2022-08-20T05:29:10.129Z,112.00
2022-08-20T05:30:11.740Z,132.00
2022-08-20T05:31:10.104Z,152.00
2022-08-20T05:32:10.094Z,176.00
2022-08-20T05:33:10.087Z,200.00
2022-08-20T05:34:11.299Z,220.00
2022-08-20T05:35:10.054Z,236.00
2022-08-20T05:36:10.043Z,260.00
2022-08-20T05:37:10.032Z,284.00
2022-08-20T05:38:10.031Z,312.00
2022-08-20T05:39:10.009Z,328.00
2022-08-20T05:40:10.081Z,316.00
2022-08-20T05:41:09.985Z,296.00
2022-08-20T05:42:09.973Z,272.00
2022-08-20T05:43:09.955Z,260.00
2022-08-20T05:44:10.064Z,256.00
2022-08-20T05:45:11.069Z,260.00
2022-08-20T05:46:09.919Z,280.00
2022-08-20T05:47:09.917Z,320.00
2022-08-20T05:48:09.898Z,376.00
2022-08-20T05:49:09.884Z,448.00
2022-08-20T05:50:09.870Z,524.00
2022-08-20T05:51:13.289Z,600.00
2022-08-20T05:52:09.850Z,668.00
2022-08-20T05:53:09.839Z,720.00
2022-08-20T05:54:09.823Z,752.00
2022-08-20T05:55:09.817Z,780.00
2022-08-20T05:56:09.801Z,792.00
2022-08-20T05:57:09.784Z,784.00
2022-08-20T05:58:09.774Z,772.00
2022-08-20T05:59:09.766Z,748.00
2022-08-20T06:00:09.751Z,732.00
2022-08-20T06:01:09.758Z,712.00
2022-08-20T06:02:09.724Z,692.00
2022-08-20T06:03:09.713Z,680.00
2022-08-20T06:04:09.710Z,672.00
2022-08-20T06:05:09.686Z,660.00
2022-08-20T06:06:15.099Z,644.00
2022-08-20T06:07:09.665Z,620.00
2022-08-20T06:08:09.651Z,608.00
2022-08-20T06:09:09.640Z,600.00
2022-08-20T06:10:09.631Z,596.00
2022-08-20T06:11:09.613Z,596.00
2022-08-20T06:12:09.620Z,596.00
2022-08-20T06:13:13.873Z,600.00
2022-08-20T06:14:09.578Z,600.00
2022-08-20T06:15:09.565Z,600.00
2022-08-20T06:16:09.561Z,600.00
2022-08-20T06:17:09.542Z,604.00
2022-08-20T06:18:16.532Z,604.00
2022-08-20T06:19:11.387Z,604.00
2022-08-20T06:20:09.513Z,592.00
2022-08-20T06:21:09.493Z,572.00
2022-08-20T06:22:18.537Z,532.00
2022-08-20T06:23:09.476Z,484.00
2022-08-20T06:24:09.461Z,440.00
2022-08-20T06:25:09.446Z,404.00
2022-08-20T06:26:09.436Z,380.00
2022-08-20T06:27:09.435Z,360.00
2022-08-20T06:28:09.411Z,348.00
2022-08-20T06:29:09.399Z,340.00
2022-08-20T06:30:09.387Z,328.00
2022-08-20T06:31:09.373Z,324.00
2022-08-20T06:32:09.365Z,336.00
2022-08-20T06:33:09.351Z,352.00
2022-08-20T06:34:09.352Z,360.00
2022-08-20T06:35:09.326Z,348.00
2022-08-20T06:36:09.315Z,320.00
2022-08-20T06:37:09.304Z,292.00
2022-08-20T06:38:09.293Z,268.00
2022-08-20T06:39:09.278Z,252.00
2022-08-20T06:40:09.330Z,240.00
2022-08-20T06:41:09.254Z,236.00
2022-08-20T06:42:09.244Z,228.00
2022-08-20T06:43:09.237Z,228.00
2022-08-20T06:44:09.225Z,232.00
2022-08-20T06:45:09.208Z,232.00
2022-08-20T06:46:09.194Z,220.00
2022-08-20T06:47:09.181Z,204.00
2022-08-20T06:48:09.173Z,188.00
2022-08-20T06:49:09.171Z,176.00
2022-08-20T06:50:09.148Z,172.00
2022-08-20T06:51:09.133Z,172.00
2022-08-20T06:52:09.125Z,172.00
2022-08-20T06:53:09.436Z,172.00
2022-08-20T06:54:09.103Z,180.00
2022-08-20T06:55:09.085Z,188.00
2022-08-20T06:56:09.074Z,196.00
2022-08-20T06:57:09.064Z,200.00
2022-08-20T06:58:32.721Z,204.00
2022-08-20T06:59:09.040Z,212.00
2022-08-20T07:00:09.026Z,224.00
2022-08-20T07:01:10.153Z,236.00
2022-08-20T07:02:09.003Z,252.00
2022-08-20T07:03:08.990Z,284.00
2022-08-20T07:04:08.981Z,324.00
2022-08-20T07:05:08.974Z,372.00
2022-08-20T07:06:08.955Z,416.00
2022-08-20T07:07:08.948Z,464.00
2022-08-20T07:08:08.931Z,524.00
2022-08-20T07:09:08.919Z,592.00
2022-08-20T07:10:08.907Z,668.00
2022-08-20T07:11:08.892Z,728.00
2022-08-20T07:12:08.881Z,760.00
2022-08-20T07:13:08.870Z,768.00
2022-08-20T07:14:08.857Z,776.00
2022-08-20T07:15:08.844Z,788.00
2022-08-20T07:16:08.835Z,796.00
2022-08-20T07:17:09.674Z,800.00
2022-08-20T07:18:08.816Z,812.00
2022-08-20T07:19:08.798Z,844.00
2022-08-20T07:20:08.787Z,900.00
2022-08-20T07:21:08.772Z,956.00
2022-08-20T07:22:08.762Z,1024.00
2022-08-20T07:23:08.748Z,1112.00
2022-08-20T07:24:08.745Z,1232.00
2022-08-20T07:25:08.730Z,1340.00
2022-08-20T07:26:08.728Z,1412.00
2022-08-20T07:27:08.703Z,1440.00
2022-08-20T07:28:08.689Z,1432.00
2022-08-20T07:29:08.684Z,1368.00
2022-08-20T07:30:12.527Z,1244.00
2022-08-20T07:31:13.731Z,1064.00
2022-08-20T07:32:08.643Z,876.00
2022-08-20T07:33:08.630Z,752.00
2022-08-20T07:34:08.621Z,684.00
2022-08-20T07:35:08.610Z,656.00
2022-08-20T07:36:08.598Z,636.00
2022-08-20T07:37:09.362Z,624.00
2022-08-20T07:38:08.575Z,636.00
2022-08-20T07:39:08.561Z,656.00
2022-08-20T07:40:08.588Z,676.00
2022-08-20T07:41:08.550Z,760.00
2022-08-20T07:42:08.527Z,932.00
2022-08-20T07:43:08.516Z,1108.00
2022-08-20T07:44:08.504Z,1228.00
2022-08-20T07:45:08.493Z,1260.00
2022-08-20T07:46:08.522Z,1216.00
2022-08-20T07:47:08.468Z,1196.00
2022-08-20T07:48:08.460Z,1208.00
2022-08-20T07:49:08.444Z,1184.00
2022-08-20T07:50:08.432Z,1172.00
2022-08-20T07:51:08.419Z,1180.00
2022-08-20T07:52:08.410Z,1172.00
2022-08-20T07:53:08.404Z,1180.00
2022-08-20T07:54:08.386Z,1200.00
2022-08-20T07:55:08.375Z,1212.00
2022-08-20T07:56:08.370Z,1228.00
2022-08-20T07:57:08.351Z,1240.00
2022-08-20T07:58:08.336Z,1236.00
2022-08-20T07:59:08.326Z,1228.00
2022-08-20T08:00:08.315Z,1224.00
2022-08-20T08:01:08.364Z,1224.00
2022-08-20T08:02:08.290Z,1220.00
2022-08-20T08:03:08.281Z,1228.00
2022-08-20T08:04:08.267Z,1264.00
2022-08-20T08:05:08.262Z,1316.00
2022-08-20T08:06:08.245Z,1388.00
2022-08-20T08:07:08.229Z,1456.00
2022-08-20T08:08:08.223Z,1500.00
2022-08-20T08:09:08.206Z,1536.00
2022-08-20T08:10:08.193Z,1564.00
2022-08-20T08:11:08.181Z,1552.00
2022-08-20T08:12:08.169Z,1540.00
2022-08-20T08:13:08.160Z,1516.00
2022-08-20T08:14:08.238Z,1472.00
2022-08-20T08:15:08.139Z,1488.00
2022-08-20T08:16:08.125Z,1596.00
2022-08-20T08:17:08.109Z,1744.00
2022-08-20T08:18:08.103Z,1896.00
2022-08-20T08:19:08.087Z,1988.00
2022-08-20T08:20:08.077Z,2012.00
2022-08-20T08:21:08.069Z,2056.00
2022-08-20T08:22:08.059Z,2100.00
2022-08-20T08:23:08.038Z,2132.00
2022-08-20T08:24:08.031Z,2176.00
2022-08-20T08:25:08.014Z,2244.00
2022-08-20T08:26:08.018Z,2172.00
2022-08-20T08:27:07.997Z,2116.00
2022-08-20T08:28:07.982Z,1972.00
2022-08-20T08:29:07.973Z,1884.00
2022-08-20T08:30:07.958Z,1800.00
2022-08-20T08:31:07.945Z,1732.00
2022-08-20T08:32:08.003Z,1680.00
2022-08-20T08:33:07.997Z,1652.00
2022-08-20T08:34:07.915Z,1640.00
2022-08-20T08:35:07.908Z,1636.00
2022-08-20T08:36:07.908Z,1684.00
2022-08-20T08:37:07.884Z,1760.00
2022-08-20T08:38:07.870Z,1872.00
2022-08-20T08:39:07.888Z,1972.00
2022-08-20T08:40:07.889Z,2068.00
2022-08-20T08:41:07.833Z,2144.00
2022-08-20T08:42:07.830Z,2208.00
2022-08-20T08:43:07.808Z,2280.00
2022-08-20T08:44:07.806Z,2372.00
2022-08-20T08:45:07.813Z,2460.00
2022-08-20T08:46:07.784Z,2612.00
2022-08-20T08:47:07.766Z,2924.00
2022-08-20T08:48:07.758Z,3636.00
2022-08-20T08:49:07.744Z,10220.00
2022-08-20T08:50:07.733Z,8796.00
2022-08-20T08:51:07.723Z,4976.00
2022-08-20T08:52:07.788Z,12044.00
2022-08-20T08:53:07.699Z,11400.00
2022-08-20T08:54:07.692Z,17760.00
2022-08-20T08:55:07.681Z,16092.00
2022-08-20T08:56:07.676Z,16640.00
2022-08-20T08:57:07.664Z,16480.00
2022-08-20T08:58:16.482Z,16512.00
2022-08-20T08:59:07.695Z,16480.00
2022-08-20T09:00:07.629Z,17408.00
2022-08-20T09:01:11.676Z,16992.00
2022-08-20T09:02:07.672Z,16960.00
2022-08-20T09:03:07.708Z,15380.00
2022-08-20T09:04:07.595Z,17312.00
2022-08-20T09:05:07.658Z,17504.00
2022-08-20T09:06:07.588Z,17312.00
2022-08-20T09:07:07.574Z,17248.00
2022-08-20T09:08:07.562Z,18400.00
2022-08-20T09:09:07.550Z,11564.00
2022-08-20T09:10:07.545Z,13964.00
2022-08-20T09:11:07.646Z,17056.00
2022-08-20T09:12:07.534Z,17536.00
2022-08-20T09:13:07.536Z,17120.00
2022-08-20T09:14:07.524Z,17440.00
2022-08-20T09:15:07.507Z,14336.00
2022-08-20T09:16:07.505Z,17344.00
2022-08-20T09:17:07.498Z,15256.00
2022-08-20T09:18:07.488Z,10092.00
2022-08-20T09:19:07.486Z,18048.00
2022-08-20T09:20:07.476Z,17440.00
2022-08-20T09:21:07.472Z,17920.00
2022-08-20T09:22:07.472Z,5768.00
2022-08-20T09:23:07.461Z,3340.00
2022-08-20T09:24:07.451Z,17696.00
2022-08-20T09:25:07.450Z,17024.00
2022-08-20T09:26:07.439Z,16768.00
2022-08-20T09:27:07.433Z,16576.00
2022-08-20T09:28:07.431Z,16704.00
2022-08-20T09:29:07.431Z,14976.00
2022-08-20T09:30:07.420Z,16188.00
2022-08-20T09:31:07.415Z,16992.00
2022-08-20T09:32:07.406Z,16672.00
2022-08-20T09:33:07.405Z,7124.00
2022-08-20T09:34:07.394Z,16640.00
2022-08-20T09:35:09.437Z,17280.00
2022-08-20T09:36:29.271Z,5912.00
2022-08-20T09:37:07.442Z,17696.00
2022-08-20T09:38:07.372Z,17408.00
2022-08-20T09:39:07.381Z,18016.00
2022-08-20T09:40:07.473Z,17760.00
2022-08-20T09:41:07.362Z,17440.00
2022-08-20T09:42:07.376Z,18272.00
2022-08-20T09:43:07.351Z,18144.00
2022-08-20T09:44:07.348Z,5680.00
2022-08-20T09:45:10.916Z,11972.00
2022-08-20T09:46:07.345Z,17984.00
2022-08-20T09:47:07.332Z,18560.00
2022-08-20T09:48:10.392Z,18336.00
2022-08-20T09:49:10.343Z,12136.00
2022-08-20T09:50:07.316Z,18208.00
2022-08-20T09:51:07.313Z,16096.00
2022-08-20T09:52:07.305Z,18944.00
2022-08-20T09:53:07.322Z,19104.00
2022-08-20T09:54:07.297Z,19008.00
2022-08-20T09:55:07.294Z,16800.00
2022-08-20T09:56:07.290Z,11716.00
2022-08-20T09:57:07.289Z,15488.00
2022-08-20T09:58:07.280Z,17088.00
2022-08-20T09:59:07.280Z,18464.00
2022-08-20T10:00:07.275Z,15464.00
2022-08-20T10:01:07.269Z,18272.00
2022-08-20T10:02:07.306Z,19040.00
2022-08-20T10:03:07.262Z,17312.00
2022-08-20T10:04:07.257Z,10140.00
2022-08-20T10:05:07.253Z,9672.00
2022-08-20T10:06:07.249Z,7788.00
2022-08-20T10:07:07.246Z,7876.00
2022-08-20T10:08:07.243Z,20960.00
2022-08-20T10:09:07.236Z,3980.00
2022-08-20T10:10:07.231Z,3840.00
2022-08-20T10:11:07.229Z,8152.00
2022-08-20T10:12:07.221Z,11796.00
2022-08-20T10:13:07.222Z,19744.00
2022-08-20T10:14:07.213Z,18592.00
2022-08-20T10:15:07.215Z,2736.00
2022-08-20T10:16:07.212Z,2624.00
2022-08-20T10:17:07.206Z,3056.00
2022-08-20T10:18:07.198Z,18976.00
2022-08-20T10:19:07.193Z,19168.00
2022-08-20T10:20:07.204Z,20160.00
2022-08-20T10:21:07.185Z,17184.00
2022-08-20T10:22:07.179Z,5620.00
2022-08-20T10:23:07.212Z,3528.00
2022-08-20T10:24:07.172Z,3876.00
2022-08-20T10:25:07.183Z,2896.00
2022-08-20T10:26:07.159Z,2400.00
2022-08-20T10:27:07.184Z,19552.00
2022-08-20T10:28:07.157Z,19520.00
2022-08-20T10:29:07.155Z,18208.00
2022-08-20T10:30:07.188Z,20128.00
2022-08-20T10:31:07.146Z,20288.00
2022-08-20T10:32:07.134Z,6176.00
2022-08-20T10:33:07.145Z,4316.00
2022-08-20T10:34:07.126Z,4380.00
2022-08-20T10:35:07.123Z,3216.00
2022-08-20T10:36:07.121Z,3064.00
2022-08-20T10:37:07.120Z,3336.00
2022-08-20T10:38:07.107Z,3008.00
2022-08-20T10:39:07.105Z,2924.00
2022-08-20T10:40:07.160Z,3084.00
2022-08-20T10:41:07.099Z,3528.00
2022-08-20T10:42:07.197Z,3164.00
2022-08-20T10:43:07.171Z,7324.00
2022-08-20T10:44:07.085Z,13560.00
2022-08-20T10:45:07.088Z,13424.00
2022-08-20T10:46:07.078Z,4136.00
2022-08-20T10:47:07.071Z,15704.00
2022-08-20T10:48:07.065Z,4316.00
2022-08-20T10:49:07.063Z,2504.00
2022-08-20T10:50:07.056Z,2120.00
2022-08-20T10:51:07.113Z,2408.00
2022-08-20T10:52:07.045Z,3996.00
2022-08-20T10:53:07.044Z,3176.00
2022-08-20T10:54:12.697Z,2948.00
2022-08-20T10:55:07.036Z,2844.00
2022-08-20T10:56:07.062Z,2932.00
2022-08-20T10:57:07.023Z,3448.00
2022-08-20T10:58:07.021Z,3704.00
2022-08-20T10:59:07.011Z,4456.00
2022-08-20T11:00:07.086Z,7320.00
2022-08-20T11:01:07.009Z,20576.00
2022-08-20T11:02:07.080Z,20384.00
2022-08-20T11:03:06.993Z,19360.00
2022-08-20T11:04:07.080Z,20032.00
2022-08-20T11:05:06.983Z,20832.00
2022-08-20T11:06:06.978Z,21376.00
2022-08-20T11:07:06.980Z,21376.00
2022-08-20T11:08:06.965Z,4140.00
2022-08-20T11:09:06.963Z,3372.00
2022-08-20T11:10:11.802Z,4432.00
2022-08-20T11:11:06.960Z,14776.00
2022-08-20T11:12:06.958Z,4224.00
2022-08-20T11:13:06.949Z,3884.00
2022-08-20T11:14:06.956Z,3612.00
2022-08-20T11:15:06.935Z,2836.00
2022-08-20T11:16:06.927Z,2308.00
2022-08-20T11:17:06.926Z,2312.00
2022-08-20T11:18:06.928Z,3064.00
2022-08-20T11:19:06.913Z,21344.00
2022-08-20T11:20:06.909Z,21344.00
2022-08-20T11:21:06.905Z,14072.00
2022-08-20T11:22:06.898Z,10256.00
2022-08-20T11:23:06.895Z,21888.00
2022-08-20T11:24:06.891Z,23648.00
2022-08-20T11:25:06.889Z,21984.00
2022-08-20T11:26:06.879Z,3828.00
2022-08-20T11:27:06.883Z,15188.00
2022-08-20T11:28:06.873Z,4596.00
2022-08-20T11:29:06.871Z,14572.00
2022-08-20T11:30:06.866Z,2788.00
2022-08-20T11:31:06.876Z,2904.00
2022-08-20T11:32:06.856Z,21184.00
2022-08-20T11:33:06.853Z,21440.00
2022-08-20T11:34:12.075Z,20608.00
2022-08-20T11:35:38.266Z,20864.00
2022-08-20T11:36:06.841Z,17024.00
2022-08-20T11:37:06.841Z,2932.00
2022-08-20T11:38:06.836Z,3640.00
2022-08-20T11:39:06.834Z,2304.00
2022-08-20T11:40:06.888Z,2692.00
2022-08-20T11:41:06.829Z,7508.00
2022-08-20T11:42:06.821Z,13700.00
2022-08-20T11:43:15.629Z,8540.00
2022-08-20T11:44:21.172Z,12512.00
2022-08-20T11:45:06.814Z,14276.00
2022-08-20T11:46:06.812Z,12180.00
2022-08-20T11:47:06.807Z,17152.00
2022-08-20T11:48:06.801Z,11316.00
2022-08-20T11:49:06.800Z,18304.00
2022-08-20T11:50:06.795Z,7088.00
2022-08-20T11:51:06.793Z,19872.00
2022-08-20T11:52:06.790Z,15668.00
2022-08-20T11:53:08.041Z,23840.00
2022-08-20T11:54:06.784Z,21792.00
2022-08-20T11:55:06.781Z,10344.00
2022-08-20T11:56:06.777Z,7856.00
2022-08-20T11:57:06.786Z,21440.00
2022-08-20T11:58:06.772Z,22432.00
2022-08-20T11:59:06.771Z,22880.00
2022-08-20T12:00:06.772Z,17984.00
2022-08-20T12:01:06.768Z,18208.00
2022-08-20T12:02:11.698Z,22624.00
2022-08-20T12:03:09.280Z,23264.00
2022-08-20T12:04:06.759Z,22592.00
2022-08-20T12:05:06.761Z,22720.00
2022-08-20T12:06:06.759Z,22752.00
2022-08-20T12:07:06.757Z,2896.00
2022-08-20T12:08:06.751Z,5060.00
2022-08-20T12:09:06.757Z,23456.00
2022-08-20T12:10:06.752Z,6808.00
2022-08-20T12:11:06.752Z,22976.00
2022-08-20T12:12:06.743Z,9788.00
2022-08-20T12:13:06.744Z,22752.00
2022-08-20T12:14:06.741Z,15404.00
2022-08-20T12:15:06.739Z,2060.00
2022-08-20T12:16:06.742Z,1996.00
2022-08-20T12:17:06.738Z,6212.00
2022-08-20T12:18:06.749Z,22464.00
2022-08-20T12:19:16.453Z,22208.00
2022-08-20T12:21:13.744Z,7436.00
2022-08-20T12:22:24.880Z,11188.00
2022-08-20T12:23:13.701Z,22560.00
2022-08-20T12:24:13.699Z,22368.00
2022-08-20T12:25:13.710Z,22240.00
2022-08-20T12:26:13.713Z,22112.00
2022-08-20T12:27:13.698Z,21952.00
2022-08-20T12:28:13.701Z,20928.00
2022-08-20T12:29:13.702Z,22112.00
2022-08-20T12:30:13.701Z,15948.00
2022-08-20T12:31:13.706Z,14204.00
2022-08-20T12:32:13.697Z,22400.00
2022-08-20T12:33:13.691Z,22144.00